sensor_id;sensor_type;location;lat;lon;timestamp;temperature;humidity
43009;DHT22;28634;45.454;11.106;2022-07-30T00:02:02;26.90;61.30
43009;DHT22;28634;45.454;11.106;2022-07-30T00:04:31;26.90;61.80
43009;DHT22;28634;45.454;11.106;2022-07-30T00:06:59;26.80;61.70
43009;DHT22;28634;45.454;11.106;2022-07-30T00:09:29;26.90;62.80
43009;DHT22;28634;45.454;11.106;2022-07-30T00:12:03;27.00;63.00
43009;DHT22;28634;45.454;11.106;2022-07-30T00:14:34;27.00;62.50
43009;DHT22;28634;45.454;11.106;2022-07-30T00:17:06;27.10;63.50
43009;DHT22;28634;45.454;11.106;2022-07-30T00:19:34;27.00;62.50
43009;DHT22;28634;45.454;11.106;2022-07-30T00:22:05;27.00;61.50
43009;DHT22;28634;45.454;11.106;2022-07-30T00:24:33;26.90;61.30
43009;DHT22;28634;45.454;11.106;2022-07-30T00:27:03;26.80;61.50
43009;DHT22;28634;45.454;11.106;2022-07-30T00:29:32;26.70;62.20
43009;DHT22;28634;45.454;11.106;2022-07-30T03:41:14;25.90;62.10
43009;DHT22;28634;45.454;11.106;2022-07-30T03:43:42;25.90;62.00
43009;DHT22;28634;45.454;11.106;2022-07-30T03:46:11;25.90;61.50
43009;DHT22;28634;45.454;11.106;2022-07-30T03:48:43;25.90;61.80
43009;DHT22;28634;45.454;11.106;2022-07-30T03:51:13;25.90;62.00
43009;DHT22;28634;45.454;11.106;2022-07-30T03:53:45;26.00;61.60
43009;DHT22;28634;45.454;11.106;2022-07-30T03:56:14;25.90;61.80
43009;DHT22;28634;45.454;11.106;2022-07-30T03:58:44;25.90;61.90
43009;DHT22;28634;45.454;11.106;2022-07-30T04:01:11;25.90;61.70
43009;DHT22;28634;45.454;11.106;2022-07-30T04:03:43;25.80;61.50
43009;DHT22;28634;45.454;11.106;2022-07-30T04:06:19;25.80;61.50
43009;DHT22;28634;45.454;11.106;2022-07-30T04:08:50;25.80;61.50
43009;DHT22;28634;45.454;11.106;2022-07-30T04:11:19;25.80;61.70
43009;DHT22;28634;45.454;11.106;2022-07-30T04:14:10;25.80;62.30
43009;DHT22;28634;45.454;11.106;2022-07-30T04:16:46;25.80;62.00
43009;DHT22;28634;45.454;11.106;2022-07-30T04:19:22;25.80;61.70
43009;DHT22;28634;45.454;11.106;2022-07-30T04:22:00;25.80;62.00
43009;DHT22;28634;45.454;11.106;2022-07-30T04:24:32;25.80;61.80
43009;DHT22;28634;45.454;11.106;2022-07-30T04:27:03;25.80;62.10
43009;DHT22;28634;45.454;11.106;2022-07-30T04:29:30;25.80;62.00
43009;DHT22;28634;45.454;11.106;2022-07-30T04:32:02;25.70;62.10
43009;DHT22;28634;45.454;11.106;2022-07-30T04:34:32;25.70;61.70
43009;DHT22;28634;45.454;11.106;2022-07-30T04:37:05;25.70;62.20
43009;DHT22;28634;45.454;11.106;2022-07-30T04:39:39;25.80;62.70
43009;DHT22;28634;45.454;11.106;2022-07-30T04:42:09;25.90;62.80
43009;DHT22;28634;45.454;11.106;2022-07-30T04:48:23;26.00;62.60
43009;DHT22;28634;45.454;11.106;2022-07-30T04:51:00;25.90;61.80
43009;DHT22;28634;45.454;11.106;2022-07-30T04:54:36;25.80;61.50
43009;DHT22;28634;45.454;11.106;2022-07-30T04:57:05;25.70;61.70
43009;DHT22;28634;45.454;11.106;2022-07-30T04:59:36;25.70;62.10
43009;DHT22;28634;45.454;11.106;2022-07-30T05:02:08;25.70;62.40
43009;DHT22;28634;45.454;11.106;2022-07-30T05:08:20;25.80;62.00
43009;DHT22;28634;45.454;11.106;2022-07-30T05:10:49;25.90;62.60
43009;DHT22;28634;45.454;11.106;2022-07-30T05:13:24;25.90;62.30
43009;DHT22;28634;45.454;11.106;2022-07-30T05:16:04;25.90;62.70
43009;DHT22;28634;45.454;11.106;2022-07-30T05:18:35;25.90;62.10
43009;DHT22;28634;45.454;11.106;2022-07-30T05:21:02;25.90;61.90
43009;DHT22;28634;45.454;11.106;2022-07-30T05:23:35;25.90;61.90
43009;DHT22;28634;45.454;11.106;2022-07-30T05:26:02;26.00;61.90
43009;DHT22;28634;45.454;11.106;2022-07-30T05:28:34;26.00;61.00
43009;DHT22;28634;45.454;11.106;2022-07-30T05:31:06;26.00;61.40
43009;DHT22;28634;45.454;11.106;2022-07-30T05:33:34;26.00;61.50
43009;DHT22;28634;45.454;11.106;2022-07-30T05:36:09;26.00;62.10
43009;DHT22;28634;45.454;11.106;2022-07-30T05:38:37;26.00;61.90
43009;DHT22;28634;45.454;11.106;2022-07-30T05:41:05;26.10;61.70
43009;DHT22;28634;45.454;11.106;2022-07-30T05:43:53;26.20;61.90
43009;DHT22;28634;45.454;11.106;2022-07-30T05:46:22;26.20;61.80
43009;DHT22;28634;45.454;11.106;2022-07-30T05:48:49;26.20;61.90
43009;DHT22;28634;45.454;11.106;2022-07-30T05:51:19;26.20;62.10
43009;DHT22;28634;45.454;11.106;2022-07-30T05:53:49;26.30;62.50
43009;DHT22;28634;45.454;11.106;2022-07-30T05:56:22;26.30;62.20
43009;DHT22;28634;45.454;11.106;2022-07-30T05:58:52;26.20;62.60
43009;DHT22;28634;45.454;11.106;2022-07-30T06:01:34;26.20;63.20
43009;DHT22;28634;45.454;11.106;2022-07-30T06:04:08;26.20;63.30
43009;DHT22;28634;45.454;11.106;2022-07-30T06:06:36;26.20;63.70
43009;DHT22;28634;45.454;11.106;2022-07-30T06:09:14;26.20;62.90
43009;DHT22;28634;45.454;11.106;2022-07-30T06:11:49;26.20;62.20
43009;DHT22;28634;45.454;11.106;2022-07-30T06:14:17;26.40;62.00
43009;DHT22;28634;45.454;11.106;2022-07-30T06:16:58;26.40;61.40
43009;DHT22;28634;45.454;11.106;2022-07-30T06:19:30;26.40;61.50
43009;DHT22;28634;45.454;11.106;2022-07-30T06:21:59;26.40;61.80
43009;DHT22;28634;45.454;11.106;2022-07-30T06:24:34;26.50;61.10
43009;DHT22;28634;45.454;11.106;2022-07-30T06:27:19;26.40;60.80
43009;DHT22;28634;45.454;11.106;2022-07-30T06:30:25;26.40;61.70
43009;DHT22;28634;45.454;11.106;2022-07-30T06:33:15;26.50;61.40
43009;DHT22;28634;45.454;11.106;2022-07-30T06:36:06;26.60;59.80
43009;DHT22;28634;45.454;11.106;2022-07-30T06:38:59;26.70;60.80
43009;DHT22;28634;45.454;11.106;2022-07-30T06:41:43;26.70;60.80
43009;DHT22;28634;45.454;11.106;2022-07-30T06:44:28;26.80;61.00
43009;DHT22;28634;45.454;11.106;2022-07-30T06:47:11;26.80;61.80
43009;DHT22;28634;45.454;11.106;2022-07-30T06:50:00;26.90;61.40
43009;DHT22;28634;45.454;11.106;2022-07-30T06:52:40;26.90;60.50
43009;DHT22;28634;45.454;11.106;2022-07-30T06:55:13;26.90;60.60
43009;DHT22;28634;45.454;11.106;2022-07-30T06:57:56;26.90;60.50
43009;DHT22;28634;45.454;11.106;2022-07-30T07:00:34;26.90;60.50
43009;DHT22;28634;45.454;11.106;2022-07-30T07:03:13;27.00;61.00
43009;DHT22;28634;45.454;11.106;2022-07-30T07:06:10;27.00;61.40
43009;DHT22;28634;45.454;11.106;2022-07-30T07:08:56;27.00;61.20
43009;DHT22;28634;45.454;11.106;2022-07-30T07:11:35;27.10;60.20
43009;DHT22;28634;45.454;11.106;2022-07-30T07:14:03;27.10;60.90
43009;DHT22;28634;45.454;11.106;2022-07-30T07:16:42;27.00;60.70
43009;DHT22;28634;45.454;11.106;2022-07-30T07:19:25;27.00;59.90
43009;DHT22;28634;45.454;11.106;2022-07-30T07:22:30;27.00;60.30
43009;DHT22;28634;45.454;11.106;2022-07-30T07:25:00;27.00;59.70
43009;DHT22;28634;45.454;11.106;2022-07-30T07:27:56;27.00;59.60
43009;DHT22;28634;45.454;11.106;2022-07-30T07:31:37;27.10;59.40
43009;DHT22;28634;45.454;11.106;2022-07-30T07:34:51;27.20;59.80
43009;DHT22;28634;45.454;11.106;2022-07-30T07:41:25;27.20;59.80
43009;DHT22;28634;45.454;11.106;2022-07-30T07:43:52;27.30;59.90
43009;DHT22;28634;45.454;11.106;2022-07-30T07:46:20;27.40;59.50
43009;DHT22;28634;45.454;11.106;2022-07-30T07:49:00;27.40;59.40
43009;DHT22;28634;45.454;11.106;2022-07-30T07:51:32;27.50;59.80
43009;DHT22;28634;45.454;11.106;2022-07-30T07:54:14;27.40;59.30
43009;DHT22;28634;45.454;11.106;2022-07-30T07:56:57;27.30;59.10
43009;DHT22;28634;45.454;11.106;2022-07-30T07:59:32;27.20;59.70
43009;DHT22;28634;45.454;11.106;2022-07-30T08:02:08;27.30;59.20
43009;DHT22;28634;45.454;11.106;2022-07-30T08:05:01;27.50;59.10
43009;DHT22;28634;45.454;11.106;2022-07-30T08:07:44;27.40;58.70
43009;DHT22;28634;45.454;11.106;2022-07-30T08:10:15;27.30;59.20
43009;DHT22;28634;45.454;11.106;2022-07-30T08:12:45;27.40;59.10
43009;DHT22;28634;45.454;11.106;2022-07-30T08:15:15;27.60;58.60
43009;DHT22;28634;45.454;11.106;2022-07-30T08:18:01;27.80;57.90
43009;DHT22;28634;45.454;11.106;2022-07-30T08:20:28;28.00;58.10
43009;DHT22;28634;45.454;11.106;2022-07-30T08:23:00;27.90;58.10
43009;DHT22;28634;45.454;11.106;2022-07-30T08:25:41;28.00;58.40
43009;DHT22;28634;45.454;11.106;2022-07-30T08:28:28;27.90;58.20
43009;DHT22;28634;45.454;11.106;2022-07-30T08:44:53;27.90;57.80
43009;DHT22;28634;45.454;11.106;2022-07-30T08:47:30;27.80;57.60
43009;DHT22;28634;45.454;11.106;2022-07-30T08:50:13;27.90;56.80
43009;DHT22;28634;45.454;11.106;2022-07-30T08:52:42;27.90;56.60
43009;DHT22;28634;45.454;11.106;2022-07-30T08:59:08;27.90;55.70
43009;DHT22;28634;45.454;11.106;2022-07-30T09:02:30;28.00;55.70
43009;DHT22;28634;45.454;11.106;2022-07-30T09:05:25;28.20;54.50
43009;DHT22;28634;45.454;11.106;2022-07-30T09:08:55;28.30;54.00
43009;DHT22;28634;45.454;11.106;2022-07-30T09:11:27;28.40;54.00
43009;DHT22;28634;45.454;11.106;2022-07-30T09:32:54;28.80;53.20
43009;DHT22;28634;45.454;11.106;2022-07-30T09:35:26;28.90;52.80
43009;DHT22;28634;45.454;11.106;2022-07-30T09:38:05;29.00;52.30
43009;DHT22;28634;45.454;11.106;2022-07-30T09:40:51;29.00;50.90
43009;DHT22;28634;45.454;11.106;2022-07-30T09:43:50;28.90;49.20
43009;DHT22;28634;45.454;11.106;2022-07-30T09:46:55;28.90;50.90
43009;DHT22;28634;45.454;11.106;2022-07-30T09:53:35;29.00;51.90
43009;DHT22;28634;45.454;11.106;2022-07-30T09:56:28;29.10;50.40
43009;DHT22;28634;45.454;11.106;2022-07-30T09:59:02;29.10;51.40
43009;DHT22;28634;45.454;11.106;2022-07-30T10:02:11;29.10;51.90
43009;DHT22;28634;45.454;11.106;2022-07-30T10:08:14;29.20;50.20
43009;DHT22;28634;45.454;11.106;2022-07-30T10:11:25;29.20;50.40
43009;DHT22;28634;45.454;11.106;2022-07-30T10:17:54;29.30;48.50
43009;DHT22;28634;45.454;11.106;2022-07-30T10:21:17;29.30;47.60
43009;DHT22;28634;45.454;11.106;2022-07-30T10:27:52;29.30;47.20
43009;DHT22;28634;45.454;11.106;2022-07-30T12:29:13;30.70;44.70
43009;DHT22;28634;45.454;11.106;2022-07-30T16:49:26;31.10;35.40
43009;DHT22;28634;45.454;11.106;2022-07-30T16:51:58;31.20;34.20
43009;DHT22;28634;45.454;11.106;2022-07-30T16:54:30;31.20;34.70
43009;DHT22;28634;45.454;11.106;2022-07-30T16:56:58;31.20;34.40
43009;DHT22;28634;45.454;11.106;2022-07-30T16:59:38;31.20;35.30
43009;DHT22;28634;45.454;11.106;2022-07-30T17:02:12;31.20;36.50
43009;DHT22;28634;45.454;11.106;2022-07-30T17:04:45;31.20;37.00
43009;DHT22;28634;45.454;11.106;2022-07-30T17:07:49;31.20;37.50
43009;DHT22;28634;45.454;11.106;2022-07-30T17:10:19;31.20;37.50
43009;DHT22;28634;45.454;11.106;2022-07-30T17:12:52;31.20;36.60
43009;DHT22;28634;45.454;11.106;2022-07-30T17:15:23;31.20;36.30
43009;DHT22;28634;45.454;11.106;2022-07-30T17:17:59;31.20;37.90
43009;DHT22;28634;45.454;11.106;2022-07-30T17:20:30;31.20;38.00
43009;DHT22;28634;45.454;11.106;2022-07-30T17:22:57;31.20;38.20
43009;DHT22;28634;45.454;11.106;2022-07-30T17:25:25;31.20;37.90
43009;DHT22;28634;45.454;11.106;2022-07-30T17:27:56;31.20;37.40
43009;DHT22;28634;45.454;11.106;2022-07-30T17:30:27;31.20;37.50
43009;DHT22;28634;45.454;11.106;2022-07-30T17:32:55;31.20;38.00
43009;DHT22;28634;45.454;11.106;2022-07-30T17:35:22;31.20;38.60
43009;DHT22;28634;45.454;11.106;2022-07-30T17:37:52;31.20;39.10
43009;DHT22;28634;45.454;11.106;2022-07-30T17:40:19;31.20;38.60
43009;DHT22;28634;45.454;11.106;2022-07-30T17:42:57;31.20;39.10
43009;DHT22;28634;45.454;11.106;2022-07-30T17:45:36;31.20;39.00
43009;DHT22;28634;45.454;11.106;2022-07-30T17:48:04;31.20;38.90
43009;DHT22;28634;45.454;11.106;2022-07-30T17:50:34;31.20;39.20
43009;DHT22;28634;45.454;11.106;2022-07-30T17:53:05;31.20;39.40
43009;DHT22;28634;45.454;11.106;2022-07-30T17:55:32;31.10;39.20
43009;DHT22;28634;45.454;11.106;2022-07-30T17:58:05;31.10;39.30
43009;DHT22;28634;45.454;11.106;2022-07-30T18:00:37;31.10;39.50
43009;DHT22;28634;45.454;11.106;2022-07-30T18:03:05;31.10;39.60
43009;DHT22;28634;45.454;11.106;2022-07-30T18:05:34;31.10;39.50
43009;DHT22;28634;45.454;11.106;2022-07-30T18:08:01;31.10;39.80
43009;DHT22;28634;45.454;11.106;2022-07-30T18:10:28;31.10;39.90
43009;DHT22;28634;45.454;11.106;2022-07-30T18:13:02;31.10;39.40
43009;DHT22;28634;45.454;11.106;2022-07-30T18:15:53;31.10;40.30
43009;DHT22;28634;45.454;11.106;2022-07-30T18:18:20;31.10;40.60
43009;DHT22;28634;45.454;11.106;2022-07-30T18:20:47;31.10;40.10
43009;DHT22;28634;45.454;11.106;2022-07-30T18:23:17;31.10;40.80
43009;DHT22;28634;45.454;11.106;2022-07-30T18:25:46;31.10;42.10
43009;DHT22;28634;45.454;11.106;2022-07-30T18:28:20;31.00;42.80
43009;DHT22;28634;45.454;11.106;2022-07-30T18:30:52;31.00;42.90
43009;DHT22;28634;45.454;11.106;2022-07-30T18:33:20;31.00;42.70
43009;DHT22;28634;45.454;11.106;2022-07-30T18:35:50;30.90;42.50
43009;DHT22;28634;45.454;11.106;2022-07-30T18:38:18;31.00;42.40
43009;DHT22;28634;45.454;11.106;2022-07-30T18:40:50;31.00;42.70
43009;DHT22;28634;45.454;11.106;2022-07-30T18:43:29;31.00;43.00
43009;DHT22;28634;45.454;11.106;2022-07-30T18:46:14;30.90;42.90
43009;DHT22;28634;45.454;11.106;2022-07-30T18:48:41;31.00;42.70
43009;DHT22;28634;45.454;11.106;2022-07-30T18:51:09;30.90;42.50
43009;DHT22;28634;45.454;11.106;2022-07-30T18:53:41;30.90;42.40
43009;DHT22;28634;45.454;11.106;2022-07-30T18:56:08;30.80;42.60
43009;DHT22;28634;45.454;11.106;2022-07-30T18:58:36;30.80;42.60
43009;DHT22;28634;45.454;11.106;2022-07-30T19:01:04;30.70;42.60
43009;DHT22;28634;45.454;11.106;2022-07-30T19:03:31;30.70;42.40
43009;DHT22;28634;45.454;11.106;2022-07-30T19:06:00;30.70;42.40
43009;DHT22;28634;45.454;11.106;2022-07-30T19:08:28;30.70;42.60
43009;DHT22;28634;45.454;11.106;2022-07-30T19:10:55;30.70;42.50
43009;DHT22;28634;45.454;11.106;2022-07-30T19:13:22;30.60;42.30
43009;DHT22;28634;45.454;11.106;2022-07-30T19:15:55;30.50;43.10
43009;DHT22;28634;45.454;11.106;2022-07-30T19:18:24;30.40;43.10
43009;DHT22;28634;45.454;11.106;2022-07-30T19:20:51;30.30;42.90
43009;DHT22;28634;45.454;11.106;2022-07-30T19:23:19;30.30;42.80
43009;DHT22;28634;45.454;11.106;2022-07-30T19:25:46;30.30;43.00
43009;DHT22;28634;45.454;11.106;2022-07-30T19:28:13;30.30;43.10
43009;DHT22;28634;45.454;11.106;2022-07-30T19:30:43;30.50;43.10
43009;DHT22;28634;45.454;11.106;2022-07-30T19:33:11;30.60;42.40
43009;DHT22;28634;45.454;11.106;2022-07-30T19:35:41;30.80;42.60
43009;DHT22;28634;45.454;11.106;2022-07-30T19:38:09;30.80;42.50
43009;DHT22;28634;45.454;11.106;2022-07-30T19:40:40;30.90;42.40
43009;DHT22;28634;45.454;11.106;2022-07-30T19:43:08;31.00;42.20
43009;DHT22;28634;45.454;11.106;2022-07-30T19:45:36;30.90;41.30
43009;DHT22;28634;45.454;11.106;2022-07-30T19:48:14;30.80;41.50
43009;DHT22;28634;45.454;11.106;2022-07-30T19:50:57;30.60;41.90
43009;DHT22;28634;45.454;11.106;2022-07-30T19:53:30;30.40;42.20
43009;DHT22;28634;45.454;11.106;2022-07-30T19:56:00;30.20;42.20
43009;DHT22;28634;45.454;11.106;2022-07-30T19:58:36;30.20;42.20
43009;DHT22;28634;45.454;11.106;2022-07-30T20:01:06;30.10;42.40
43009;DHT22;28634;45.454;11.106;2022-07-30T20:03:35;30.10;42.70
43009;DHT22;28634;45.454;11.106;2022-07-30T20:06:03;30.00;42.90
43009;DHT22;28634;45.454;11.106;2022-07-30T20:08:34;30.00;42.90
43009;DHT22;28634;45.454;11.106;2022-07-30T20:11:02;30.00;43.00
43009;DHT22;28634;45.454;11.106;2022-07-30T20:13:34;30.00;43.20
43009;DHT22;28634;45.454;11.106;2022-07-30T20:16:16;30.10;42.90
43009;DHT22;28634;45.454;11.106;2022-07-30T20:18:43;30.10;42.80
43009;DHT22;28634;45.454;11.106;2022-07-30T20:21:13;30.00;42.90
43009;DHT22;28634;45.454;11.106;2022-07-30T20:23:43;29.90;42.90
43009;DHT22;28634;45.454;11.106;2022-07-30T20:26:11;30.00;42.50
43009;DHT22;28634;45.454;11.106;2022-07-30T20:28:42;30.00;42.60
43009;DHT22;28634;45.454;11.106;2022-07-30T20:31:11;29.90;42.60
43009;DHT22;28634;45.454;11.106;2022-07-30T20:33:41;29.90;42.70
43009;DHT22;28634;45.454;11.106;2022-07-30T20:36:17;29.90;42.60
43009;DHT22;28634;45.454;11.106;2022-07-30T20:38:48;29.90;42.70
43009;DHT22;28634;45.454;11.106;2022-07-30T20:41:15;29.90;42.90
43009;DHT22;28634;45.454;11.106;2022-07-30T20:43:47;29.90;42.70
43009;DHT22;28634;45.454;11.106;2022-07-30T20:46:20;29.90;42.50
43009;DHT22;28634;45.454;11.106;2022-07-30T20:48:50;29.80;42.50
43009;DHT22;28634;45.454;11.106;2022-07-30T20:51:19;29.80;42.30
43009;DHT22;28634;45.454;11.106;2022-07-30T20:53:58;29.70;42.40
43009;DHT22;28634;45.454;11.106;2022-07-30T20:56:27;29.70;42.50
43009;DHT22;28634;45.454;11.106;2022-07-30T20:58:56;29.70;42.40
43009;DHT22;28634;45.454;11.106;2022-07-30T21:01:27;29.70;42.70
43009;DHT22;28634;45.454;11.106;2022-07-30T21:03:56;29.70;42.70
43009;DHT22;28634;45.454;11.106;2022-07-30T21:06:24;29.70;42.90
43009;DHT22;28634;45.454;11.106;2022-07-30T21:08:52;30.00;42.80
43009;DHT22;28634;45.454;11.106;2022-07-30T21:11:23;30.20;42.90
43009;DHT22;28634;45.454;11.106;2022-07-30T21:13:52;30.50;42.30
43009;DHT22;28634;45.454;11.106;2022-07-30T21:16:25;30.50;40.00
43009;DHT22;28634;45.454;11.106;2022-07-30T21:19:06;30.50;39.60
43009;DHT22;28634;45.454;11.106;2022-07-30T21:22:28;30.50;40.30
43009;DHT22;28634;45.454;11.106;2022-07-30T21:24:57;30.50;39.30
43009;DHT22;28634;45.454;11.106;2022-07-30T21:27:25;30.40;39.80
43009;DHT22;28634;45.454;11.106;2022-07-30T21:29:57;30.40;39.80
43009;DHT22;28634;45.454;11.106;2022-07-30T21:32:25;30.30;40.00
43009;DHT22;28634;45.454;11.106;2022-07-30T21:34:53;30.20;40.10
43009;DHT22;28634;45.454;11.106;2022-07-30T21:37:39;30.20;40.90
43009;DHT22;28634;45.454;11.106;2022-07-30T21:40:13;30.20;40.40
43009;DHT22;28634;45.454;11.106;2022-07-30T21:42:40;30.20;40.50
43009;DHT22;28634;45.454;11.106;2022-07-30T21:45:14;30.10;41.00
43009;DHT22;28634;45.454;11.106;2022-07-30T21:47:44;30.10;41.10
43009;DHT22;28634;45.454;11.106;2022-07-30T21:50:14;30.10;41.30
43009;DHT22;28634;45.454;11.106;2022-07-30T21:52:46;30.00;41.70
43009;DHT22;28634;45.454;11.106;2022-07-30T21:55:17;29.90;41.70
43009;DHT22;28634;45.454;11.106;2022-07-30T21:57:47;29.90;41.90
43009;DHT22;28634;45.454;11.106;2022-07-30T22:00:18;29.90;42.10
43009;DHT22;28634;45.454;11.106;2022-07-30T22:02:49;29.90;42.30
43009;DHT22;28634;45.454;11.106;2022-07-30T22:05:20;29.90;42.20
43009;DHT22;28634;45.454;11.106;2022-07-30T22:08:11;29.80;42.70
43009;DHT22;28634;45.454;11.106;2022-07-30T22:10:46;29.70;43.20
43009;DHT22;28634;45.454;11.106;2022-07-30T22:13:16;29.70;43.40
43009;DHT22;28634;45.454;11.106;2022-07-30T22:15:51;29.60;43.90
43009;DHT22;28634;45.454;11.106;2022-07-30T22:18:20;29.50;44.20
43009;DHT22;28634;45.454;11.106;2022-07-30T22:20:53;29.40;44.40
43009;DHT22;28634;45.454;11.106;2022-07-30T22:23:24;29.40;44.50
43009;DHT22;28634;45.454;11.106;2022-07-30T22:25:52;29.30;44.70
43009;DHT22;28634;45.454;11.106;2022-07-30T22:28:31;29.20;44.90
43009;DHT22;28634;45.454;11.106;2022-07-30T22:31:03;29.20;44.80
43009;DHT22;28634;45.454;11.106;2022-07-30T22:33:31;29.20;44.80
43009;DHT22;28634;45.454;11.106;2022-07-30T22:36:03;29.20;45.00
43009;DHT22;28634;45.454;11.106;2022-07-30T22:38:45;29.20;44.80
43009;DHT22;28634;45.454;11.106;2022-07-30T22:41:25;29.20;45.00
43009;DHT22;28634;45.454;11.106;2022-07-30T22:43:55;29.20;45.20
43009;DHT22;28634;45.454;11.106;2022-07-30T22:46:29;29.20;45.10
43009;DHT22;28634;45.454;11.106;2022-07-30T22:49:02;29.20;45.20
43009;DHT22;28634;45.454;11.106;2022-07-30T22:51:32;29.10;45.20
43009;DHT22;28634;45.454;11.106;2022-07-30T22:54:19;29.10;45.40
43009;DHT22;28634;45.454;11.106;2022-07-30T22:56:51;29.10;45.30
43009;DHT22;28634;45.454;11.106;2022-07-30T22:59:29;29.00;45.60
43009;DHT22;28634;45.454;11.106;2022-07-30T23:02:20;29.00;45.80
43009;DHT22;28634;45.454;11.106;2022-07-30T23:04:49;29.10;45.70
43009;DHT22;28634;45.454;11.106;2022-07-30T23:07:16;29.00;45.70
43009;DHT22;28634;45.454;11.106;2022-07-30T23:09:44;29.00;45.80
43009;DHT22;28634;45.454;11.106;2022-07-30T23:12:17;29.00;46.00
43009;DHT22;28634;45.454;11.106;2022-07-30T23:14:47;29.00;46.20
43009;DHT22;28634;45.454;11.106;2022-07-30T23:17:15;28.90;46.20
43009;DHT22;28634;45.454;11.106;2022-07-30T23:19:48;28.90;46.30
43009;DHT22;28634;45.454;11.106;2022-07-30T23:22:17;28.90;46.60
43009;DHT22;28634;45.454;11.106;2022-07-30T23:24:45;28.90;47.00
43009;DHT22;28634;45.454;11.106;2022-07-30T23:27:20;28.80;47.30
43009;DHT22;28634;45.454;11.106;2022-07-30T23:29:51;28.80;46.80
43009;DHT22;28634;45.454;11.106;2022-07-30T23:32:18;28.80;46.70
43009;DHT22;28634;45.454;11.106;2022-07-30T23:34:50;28.70;47.50
43009;DHT22;28634;45.454;11.106;2022-07-30T23:37:17;28.60;47.60
43009;DHT22;28634;45.454;11.106;2022-07-30T23:39:48;28.60;47.90
43009;DHT22;28634;45.454;11.106;2022-07-30T23:42:17;28.60;47.60
43009;DHT22;28634;45.454;11.106;2022-07-30T23:44:48;28.70;47.10
43009;DHT22;28634;45.454;11.106;2022-07-30T23:47:21;28.60;47.50
43009;DHT22;28634;45.454;11.106;2022-07-30T23:50:09;28.60;47.60
43009;DHT22;28634;45.454;11.106;2022-07-30T23:52:36;28.60;47.60
43009;DHT22;28634;45.454;11.106;2022-07-30T23:55:06;28.60;47.50
43009;DHT22;28634;45.454;11.106;2022-07-30T23:57:35;28.50;47.50
